Time;durP1;ratioP1;P1;durP2;ratioP2;P2;SDS_P1;SDS_P2;PMS_P1;PMS_P2;Temp;Humidity;BMP_temperature;BMP_pressure;BME280_temperature;BME280_humidity;BME280_pressure;Samples;Min_cycle;Max_cycle;Signal;HPM_P1;HPM_P2
2022/06/20 00:02:12;;;;;;;8.03;6.23;;;14.70;93.20;;;;;;4978769;28;20457;-81
2022/06/20 00:04:39;;;;;;;8.07;5.80;;;14.70;92.80;;;;;;4979338;28;20455;-81
2022/06/20 00:07:06;;;;;;;5.90;3.90;;;14.80;91.60;;;;;;4979198;28;20480;-81
2022/06/20 00:09:33;;;;;;;5.87;4.57;;;14.80;90.70;;;;;;4978105;28;20451;-81
2022/06/20 00:12:01;;;;;;;8.37;4.87;;;14.70;90.70;;;;;;4978334;28;20482;-81
2022/06/20 00:14:27;;;;;;;6.00;3.73;;;14.70;89.50;;;;;;4979160;28;20462;-81
2022/06/20 00:20:36;;;;;;;6.20;3.57;;;14.80;84.10;;;;;;4866064;28;20524;-80
2022/06/20 00:23:24;;;;;;;5.37;2.90;;;14.80;85.50;;;;;;4983250;28;20453;-82
2022/06/20 00:29:31;;;;;;;5.57;3.50;;;14.70;83.10;;;;;;4957195;28;20471;-82
2022/06/20 00:32:22;;;;;;;7.10;3.80;;;14.70;83.40;;;;;;4942733;28;20486;-81
2022/06/20 00:35:11;;;;;;;6.93;3.83;;;14.70;84.90;;;;;;4964469;29;20456;-82
2022/06/20 00:38:37;;;;;;;;;;;;;;;;;;;;;
2022/06/20 00:41:29;;;;;;;7.70;3.80;;;14.70;86.30;;;;;;4957673;28;20551;-82
2022/06/20 00:44:15;;;;;;;10.33;5.20;;;14.60;86.20;;;;;;4964928;29;20483;-81
2022/06/20 00:50:33;;;;;;;10.47;7.53;;;14.60;88.80;;;;;;4963105;28;20464;-82
2022/06/20 00:53:12;;;;;;;10.87;9.90;;;14.50;90.00;;;;;;4963386;28;20996;-81
2022/06/20 00:55:53;;;;;;;10.67;9.67;;;14.70;91.10;;;;;;4964510;29;20462;-82
2022/06/20 00:58:30;;;;;;;20.43;19.30;;;14.60;91.30;;;;;;4962335;29;20482;-82
2022/06/20 01:03:59;;;;;;;52.17;50.00;;;14.70;93.80;;;;;;4960798;28;20659;-80
2022/06/20 01:06:36;;;;;;;40.10;38.10;;;14.70;98.50;;;;;;4962504;28;20448;-81
2022/06/20 01:09:07;;;;;;;46.00;43.87;;;14.60;97.20;;;;;;4961403;29;20458;-80
2022/06/20 01:11:44;;;;;;;77.20;74.20;;;14.60;98.60;;;;;;4963432;29;20867;-80
2022/06/20 01:14:27;;;;;;;142.13;137.23;;;14.30;99.90;;;;;;4964320;29;20443;-81
2022/06/20 01:16:58;;;;;;;280.53;271.73;;;14.10;99.90;;;;;;4965285;29;20502;-81
2022/06/20 01:19:47;;;;;;;279.47;269.97;;;13.90;99.90;;;;;;4961167;28;20819;-79
2022/06/20 01:22:26;;;;;;;532.87;510.27;;;13.80;99.90;;;;;;4964913;28;20534;-80
2022/06/20 01:25:01;;;;;;;511.90;489.57;;;13.60;99.90;;;;;;4964380;29;20440;-80
2022/06/20 01:27:38;;;;;;;559.77;530.20;;;13.40;99.90;;;;;;4963836;29;21150;-80
2022/06/20 01:30:06;;;;;;;682.63;640.23;;;13.40;99.90;;;;;;4962173;28;20455;-80
2022/06/20 01:32:43;;;;;;;742.07;690.33;;;13.30;99.90;;;;;;4963948;29;20483;-80
2022/06/20 01:37:23;;;;;;;764.43;709.67;;;13.40;99.90;;;;;;4963514;29;20459;-80
2022/06/20 01:38:01;;;;;;;760.43;704.93;;;13.40;99.90;;;;;;4963074;29;20472;-80
2022/06/20 01:40:29;;;;;;;763.53;709.27;;;13.20;99.90;;;;;;4962229;28;20441;-81
2022/06/20 01:42:56;;;;;;;825.73;765.47;;;13.20;99.90;;;;;;4962874;29;20529;-80
2022/06/20 01:48:14;;;;;;;839.17;774.67;;;13.30;99.90;;;;;;4963567;29;20463;-79
2022/06/20 01:50:43;;;;;;;839.17;773.43;;;13.30;99.90;;;;;;4962802;29;20535;-79
2022/06/20 01:53:13;;;;;;;815.27;753.23;;;13.30;99.90;;;;;;4963114;29;20484;-80
2022/06/20 01:55:42;;;;;;;818.80;751.67;;;13.30;99.90;;;;;;4962345;29;20436;-80
2022/06/20 01:58:15;;;;;;;851.07;781.83;;;13.30;99.90;;;;;;4961031;29;20546;-80
2022/06/20 02:00:44;;;;;;;807.40;743.90;;;13.50;99.90;;;;;;4962861;29;20444;-81
2022/06/20 02:03:17;;;;;;;783.17;725.37;;;13.30;99.90;;;;;;4962389;29;20451;-81
2022/06/20 02:05:51;;;;;;;735.10;684.30;;;13.20;99.90;;;;;;4961773;28;20455;-81
2022/06/20 02:08:21;;;;;;;774.27;718.97;;;13.20;99.90;;;;;;4963190;29;20548;-81
2022/06/20 02:10:52;;;;;;;714.33;669.77;;;13.10;99.90;;;;;;4962265;29;20466;-82
2022/06/20 02:13:26;;;;;;;661.23;623.47;;;13.10;99.90;;;;;;4963300;29;20468;-82
2022/06/20 02:16:00;;;;;;;575.50;547.80;;;12.90;99.90;;;;;;4963788;29;20466;-82
2022/06/20 02:18:29;;;;;;;545.00;518.90;;;13.00;99.90;;;;;;4963544;29;20573;-80
2022/06/20 02:21:05;;;;;;;664.57;628.50;;;12.90;99.90;;;;;;4963942;29;20456;-80
2022/06/20 02:23:37;;;;;;;606.33;578.80;;;12.90;99.90;;;;;;4963013;29;20436;-80
2022/06/20 02:26:07;;;;;;;616.10;583.10;;;13.00;99.90;;;;;;4964954;29;20508;-81
2022/06/20 02:28:40;;;;;;;481.97;462.37;;;12.90;99.90;;;;;;4962054;28;20951;-81
2022/06/20 02:31:08;;;;;;;571.17;544.30;;;12.90;99.90;;;;;;4963599;28;20928;-80
2022/06/20 02:33:35;;;;;;;476.20;459.53;;;12.80;99.90;;;;;;4964164;29;20518;-81
2022/06/20 02:36:05;;;;;;;628.63;594.83;;;12.80;99.90;;;;;;4963057;28;20472;-81
2022/06/20 02:38:32;;;;;;;370.30;358.60;;;12.90;99.90;;;;;;4963783;29;20744;-81
2022/06/20 02:41:00;;;;;;;431.97;416.80;;;12.80;99.90;;;;;;4963526;29;20523;-81
2022/06/20 02:43:35;;;;;;;555.20;530.83;;;12.80;99.90;;;;;;4963066;29;20467;-80
2022/06/20 02:46:07;;;;;;;550.97;525.27;;;12.80;99.90;;;;;;4964885;29;20460;-81
2022/06/20 02:48:38;;;;;;;524.20;505.30;;;12.90;99.90;;;;;;4964801;29;20456;-81
2022/06/20 02:51:08;;;;;;;411.27;399.20;;;12.90;99.90;;;;;;4965677;29;20554;-82
2022/06/20 02:53:40;;;;;;;618.27;592.37;;;12.90;99.90;;;;;;4966007;29;20468;-82
2022/06/20 02:56:14;;;;;;;601.53;576.07;;;12.90;99.90;;;;;;4966168;29;20460;-82
2022/06/20 02:58:47;;;;;;;651.47;621.17;;;12.80;99.90;;;;;;4965675;28;20460;-83
2022/06/20 03:01:21;;;;;;;691.23;653.63;;;12.80;99.90;;;;;;4967333;29;20495;-82
2022/06/20 03:03:51;;;;;;;686.80;652.20;;;12.80;99.90;;;;;;4966872;29;20514;-82
2022/06/20 03:06:24;;;;;;;684.93;651.63;;;12.80;99.90;;;;;;4966933;29;20523;-82
2022/06/20 03:08:52;;;;;;;691.83;655.43;;;12.80;99.90;;;;;;4966919;29;20440;-82
2022/06/20 03:11:20;;;;;;;629.03;604.47;;;12.70;99.90;;;;;;4966254;28;20460;-81
2022/06/20 03:13:47;;;;;;;621.80;597.80;;;12.60;99.90;;;;;;4964312;29;20512;-81
2022/06/20 03:16:17;;;;;;;653.50;626.43;;;12.50;99.90;;;;;;4964418;28;20538;-81
2022/06/20 03:18:49;;;;;;;683.47;652.90;;;12.60;99.90;;;;;;4967725;29;20463;-81
2022/06/20 03:21:18;;;;;;;722.30;680.83;;;12.60;99.90;;;;;;4968521;29;20831;-81
2022/06/20 03:23:45;;;;;;;708.07;669.07;;;12.60;99.90;;;;;;4969120;29;20451;-82
2022/06/20 03:26:19;;;;;;;728.77;686.10;;;12.60;99.90;;;;;;4969327;29;20466;-80
2022/06/20 03:28:46;;;;;;;688.23;655.07;;;12.60;99.90;;;;;;4969300;29;21010;-82
2022/06/20 03:31:15;;;;;;;719.40;681.40;;;12.50;99.90;;;;;;4971650;29;20460;-82
2022/06/20 03:33:42;;;;;;;692.47;659.40;;;12.50;99.90;;;;;;4969205;28;20475;-82
2022/06/20 03:36:13;;;;;;;712.73;670.57;;;12.50;99.90;;;;;;4969458;29;20531;-81
2022/06/20 03:38:42;;;;;;;726.93;682.77;;;12.50;99.90;;;;;;4969163;29;20448;-82
2022/06/20 03:41:13;;;;;;;715.70;675.23;;;12.50;99.90;;;;;;4968865;29;20441;-82
2022/06/20 03:43:41;;;;;;;726.97;682.83;;;12.50;99.90;;;;;;4969185;29;20452;-81
2022/06/20 03:46:16;;;;;;;740.67;691.97;;;12.50;99.90;;;;;;4968570;29;20975;-80
2022/06/20 03:48:51;;;;;;;745.63;694.33;;;12.60;99.90;;;;;;4968592;29;20432;-81
2022/06/20 03:51:22;;;;;;;753.80;701.60;;;12.60;99.90;;;;;;4968016;29;20464;-82
2022/06/20 03:53:53;;;;;;;769.10;708.73;;;12.60;99.90;;;;;;4968886;29;20507;-82
2022/06/20 03:56:24;;;;;;;768.20;704.87;;;12.60;99.90;;;;;;4968406;29;20519;-81
2022/06/20 03:58:58;;;;;;;779.90;714.90;;;12.70;99.90;;;;;;4966590;29;20523;-81
2022/06/20 04:01:30;;;;;;;772.60;707.83;;;12.70;99.90;;;;;;4966504;29;20444;-81
2022/06/20 04:04:03;;;;;;;766.77;701.97;;;12.80;99.90;;;;;;4965980;29;20452;-81
2022/06/20 04:06:35;;;;;;;803.10;737.07;;;12.80;99.90;;;;;;4966302;29;20479;-82
2022/06/20 04:12:00;;;;;;;790.03;723.63;;;12.80;99.90;;;;;;4964809;29;20442;-82
2022/06/20 04:14:33;;;;;;;780.63;716.30;;;12.70;99.90;;;;;;4964906;29;20578;-81
2022/06/20 04:18:27;;;;;;;818.23;753.37;;;12.80;99.90;;;;;;4962998;29;20584;-81
2022/06/20 04:19:55;;;;;;;845.90;781.80;;;12.90;99.90;;;;;;4962199;29;20482;-81
2022/06/20 04:22:28;;;;;;;815.30;753.93;;;12.90;99.90;;;;;;4962725;29;20523;-80
2022/06/20 04:25:02;;;;;;;814.90;752.47;;;12.70;99.90;;;;;;4961559;29;20448;-80
2022/06/20 04:27:45;;;;;;;815.47;754.77;;;12.80;99.90;;;;;;4962409;28;20518;-79
2022/06/20 04:30:20;;;;;;;800.37;741.30;;;13.00;99.90;;;;;;4961394;29;20448;-81
2022/06/20 04:32:52;;;;;;;802.80;743.70;;;12.80;99.90;;;;;;4963141;29;20483;-81
2022/06/20 04:35:25;;;;;;;827.90;765.90;;;12.80;99.90;;;;;;4963092;29;20551;-81
2022/06/20 04:37:57;;;;;;;831.27;768.73;;;12.90;99.90;;;;;;4962577;29;20479;-80
2022/06/20 04:40:27;;;;;;;830.50;766.70;;;12.90;99.90;;;;;;4963170;28;20519;-82
2022/06/20 04:43:01;;;;;;;810.20;746.87;;;12.70;99.90;;;;;;4965202;28;20975;-81
2022/06/20 04:45:32;;;;;;;832.57;767.87;;;12.70;99.90;;;;;;4964762;29;20459;-81
2022/06/20 04:48:06;;;;;;;809.80;747.60;;;12.70;99.90;;;;;;4964264;29;20553;-82
2022/06/20 04:50:36;;;;;;;795.53;733.93;;;12.70;99.90;;;;;;4961638;29;20453;-81
2022/06/20 04:53:08;;;;;;;802.50;738.10;;;12.70;99.90;;;;;;4962728;29;20547;-80
2022/06/20 04:55:42;;;;;;;811.67;747.97;;;12.80;99.90;;;;;;4962534;28;20487;-80
2022/06/20 04:58:13;;;;;;;845.10;779.83;;;12.70;99.90;;;;;;4962627;29;20535;-79
2022/06/20 05:00:42;;;;;;;797.00;740.63;;;12.80;99.90;;;;;;4961377;29;20439;-80
2022/06/20 05:03:18;;;;;;;777.30;722.80;;;12.70;99.90;;;;;;4961745;29;20547;-81
2022/06/20 05:05:51;;;;;;;827.77;767.93;;;12.60;99.90;;;;;;4962288;29;20515;-81
2022/06/20 05:08:28;;;;;;;820.90;759.90;;;12.70;99.90;;;;;;4961110;29;20502;-80
2022/06/20 05:11:02;;;;;;;818.00;756.53;;;12.70;99.90;;;;;;4961094;29;20452;-81
2022/06/20 05:13:36;;;;;;;802.67;743.10;;;12.80;99.90;;;;;;4963503;29;20467;-82
2022/06/20 05:16:06;;;;;;;794.20;734.33;;;12.80;99.90;;;;;;4965093;29;20472;-84
2022/06/20 05:18:37;;;;;;;814.93;753.37;;;12.70;99.90;;;;;;4964088;29;20555;-82
2022/06/20 05:21:11;;;;;;;805.17;742.97;;;12.70;99.90;;;;;;4964293;29;20472;-82
2022/06/20 05:23:43;;;;;;;798.20;734.70;;;12.80;99.90;;;;;;4961547;29;20487;-83
2022/06/20 05:26:16;;;;;;;754.83;693.33;;;12.80;99.90;;;;;;4963462;29;20458;-80
2022/06/20 05:28:46;;;;;;;747.30;686.77;;;12.80;99.90;;;;;;4964155;29;20463;-83
2022/06/20 05:31:17;;;;;;;745.93;690.53;;;12.70;99.90;;;;;;4964028;29;20456;-82
2022/06/20 05:33:53;;;;;;;717.37;674.37;;;12.70;99.90;;;;;;4965033;29;20475;-82
2022/06/20 05:36:26;;;;;;;713.47;670.93;;;12.60;99.90;;;;;;4964389;29;20439;-82
2022/06/20 05:38:58;;;;;;;702.13;664.57;;;12.60;99.90;;;;;;4964883;29;20436;-79
2022/06/20 05:41:26;;;;;;;679.07;646.40;;;12.60;99.90;;;;;;4966067;29;20462;-80
2022/06/20 05:43:59;;;;;;;707.53;669.83;;;12.60;99.90;;;;;;4967151;28;20455;-80
2022/06/20 05:46:34;;;;;;;703.63;667.37;;;12.60;99.90;;;;;;4965124;29;20456;-80
2022/06/20 05:49:05;;;;;;;714.60;675.27;;;12.60;99.90;;;;;;4965463;28;20483;-81
2022/06/20 05:51:40;;;;;;;710.50;670.33;;;12.60;99.90;;;;;;4966856;29;20440;-80
2022/06/20 05:54:14;;;;;;;693.30;659.97;;;12.60;99.90;;;;;;4966268;28;20924;-81
2022/06/20 05:56:43;;;;;;;703.57;665.73;;;12.60;99.90;;;;;;4966450;28;20467;-82
2022/06/20 05:59:27;;;;;;;683.50;652.40;;;12.50;99.90;;;;;;4959002;29;20455;-82
2022/06/20 06:02:25;;;;;;;691.63;658.93;;;12.50;99.90;;;;;;4955228;29;20470;-84
2022/06/20 06:08:21;;;;;;;654.67;626.30;;;12.50;99.90;;;;;;4926185;28;20611;-85
2022/06/20 06:10:53;;;;;;;679.53;646.53;;;12.60;99.90;;;;;;4956918;29;20455;-80
2022/06/20 06:13:26;;;;;;;698.73;662.33;;;12.60;99.90;;;;;;4957074;28;20464;-80
2022/06/20 06:19:07;;;;;;;623.47;595.80;;;12.60;99.90;;;;;;4982848;23;20483;-81
2022/06/20 06:21:35;;;;;;;686.50;651.80;;;12.70;99.90;;;;;;4976007;28;20546;-82
2022/06/20 06:24:06;;;;;;;607.23;580.17;;;12.80;99.90;;;;;;4974324;28;20458;-84
2022/06/20 06:26:35;;;;;;;620.70;591.83;;;12.80;99.90;;;;;;4977151;28;20454;-82
2022/06/20 06:29:02;;;;;;;636.93;605.23;;;12.80;99.90;;;;;;4973633;28;20830;-82
2022/06/20 06:31:33;;;;;;;634.03;603.37;;;12.80;99.90;;;;;;4975589;28;20454;-82
2022/06/20 06:34:05;;;;;;;659.00;621.23;;;12.90;99.90;;;;;;4978498;28;20478;-83
2022/06/20 06:36:39;;;;;;;661.30;624.80;;;13.00;99.90;;;;;;4977147;28;20459;-83
2022/06/20 06:39:13;;;;;;;685.70;646.63;;;13.00;99.90;;;;;;4976630;28;20475;-83
2022/06/20 06:41:45;;;;;;;679.67;642.30;;;13.00;99.90;;;;;;4978144;28;20829;-83
2022/06/20 06:44:17;;;;;;;707.63;662.67;;;13.10;99.90;;;;;;4975904;28;20455;-79
2022/06/20 06:46:47;;;;;;;696.67;657.50;;;13.10;99.90;;;;;;4976583;28;20447;-84
2022/06/20 06:49:32;;;;;;;695.27;656.60;;;13.10;99.90;;;;;;4980101;28;20466;-85
2022/06/20 06:52:06;;;;;;;691.80;653.13;;;13.20;99.90;;;;;;4979659;28;20451;-83
2022/06/20 06:54:57;;;;;;;686.93;650.27;;;13.20;99.90;;;;;;4979607;28;20534;-83
2022/06/20 06:57:31;;;;;;;683.63;646.67;;;13.30;99.90;;;;;;4981995;28;20539;-83
2022/06/20 07:00:25;;;;;;;690.00;654.07;;;13.50;99.90;;;;;;4980065;28;20458;-83
2022/06/20 07:02:56;;;;;;;705.40;668.13;;;13.40;99.90;;;;;;4981582;28;20454;-83
2022/06/20 07:05:30;;;;;;;725.00;685.40;;;13.60;99.90;;;;;;4977330;28;20457;-84
2022/06/20 07:08:33;;;;;;;739.80;698.50;;;13.60;99.90;;;;;;4965545;29;20571;-83
2022/06/20 07:11:25;;;;;;;735.80;696.60;;;13.60;99.90;;;;;;4953619;28;20463;-83
2022/06/20 07:14:04;;;;;;;749.53;704.93;;;13.60;99.90;;;;;;4961233;29;20484;-83
2022/06/20 07:16:38;;;;;;;725.77;687.77;;;13.90;99.90;;;;;;4961684;29;21193;-84
2022/06/20 07:19:11;;;;;;;699.80;666.73;;;13.80;99.90;;;;;;4960182;29;20511;-86
2022/06/20 07:21:44;;;;;;;743.57;705.90;;;13.80;99.90;;;;;;4960772;29;20503;-83
2022/06/20 07:24:22;;;;;;;711.40;677.67;;;13.80;99.90;;;;;;4959671;29;21033;-83
2022/06/20 07:27:00;;;;;;;692.10;660.40;;;13.80;99.90;;;;;;4960680;29;20459;-83
2022/06/20 07:29:36;;;;;;;653.53;625.83;;;13.90;99.90;;;;;;4960330;29;20899;-83
2022/06/20 07:32:12;;;;;;;302.27;292.70;;;13.90;99.90;;;;;;4961197;29;20447;-83
2022/06/20 07:35:10;;;;;;;256.70;247.87;;;13.80;99.90;;;;;;4960503;29;20491;-83
2022/06/20 07:37:47;;;;;;;73.47;70.47;;;14.00;99.90;;;;;;4960919;29;20511;-84
2022/06/20 07:40:24;;;;;;;92.50;89.00;;;14.20;99.90;;;;;;4959882;28;20491;-84
2022/06/20 07:43:01;;;;;;;16.07;14.77;;;14.40;99.90;;;;;;4961007;29;20522;-84
2022/06/20 07:45:33;;;;;;;21.70;20.10;;;14.60;99.90;;;;;;4979524;28;20925;-83
2022/06/20 07:48:05;;;;;;;31.97;30.20;;;14.50;99.90;;;;;;4980733;28;20478;-82
2022/06/20 07:50:35;;;;;;;16.00;14.60;;;14.40;99.90;;;;;;4980172;28;20459;-83
2022/06/20 07:53:08;;;;;;;22.42;20.85;;;14.60;99.90;;;;;;4979990;28;20461;-84
2022/06/20 07:55:36;;;;;;;16.00;7.27;;;14.60;99.90;;;;;;4980658;28;20301;-84
2022/06/20 07:58:08;;;;;;;9.77;6.77;;;14.70;99.60;;;;;;4981433;28;21026;-86
2022/06/20 08:00:41;;;;;;;9.63;4.80;;;14.90;99.90;;;;;;4979081;28;20550;-86
2022/06/20 08:03:14;;;;;;;24.60;7.93;;;15.20;99.70;;;;;;4980557;28;20461;-84
2022/06/20 08:05:45;;;;;;;12.50;7.10;;;15.20;97.40;;;;;;4980692;28;20454;-84
2022/06/20 08:08:18;;;;;;;15.37;13.23;;;15.50;99.00;;;;;;4980262;28;20489;-84
2022/06/20 08:10:48;;;;;;;20.60;11.03;;;16.30;99.90;;;;;;4981265;28;20483;-84
2022/06/20 08:13:21;;;;;;;22.30;9.87;;;16.80;96.70;;;;;;4981135;28;20468;-84
2022/06/20 08:15:53;;;;;;;22.90;7.27;;;16.90;93.40;;;;;;4980787;28;20483;-84
2022/06/20 08:18:21;;;;;;;13.37;6.27;;;17.40;94.00;;;;;;4979973;28;20483;-84
2022/06/20 08:20:55;;;;;;;12.03;4.90;;;17.30;91.70;;;;;;4980212;28;20470;-85
2022/06/20 08:23:25;;;;;;;12.20;5.70;;;17.00;91.10;;;;;;4979400;28;20862;-84
2022/06/20 08:25:57;;;;;;;12.30;5.40;;;17.00;92.80;;;;;;4981313;28;20456;-84
2022/06/20 08:28:34;;;;;;;15.30;6.60;;;16.70;90.30;;;;;;4979904;28;20478;-84
2022/06/20 08:31:07;;;;;;;13.57;6.80;;;16.60;89.00;;;;;;4980438;28;20984;-84
2022/06/20 08:33:39;;;;;;;15.80;6.67;;;16.70;93.40;;;;;;4981284;28;20459;-84
2022/06/20 08:36:12;;;;;;;15.10;7.77;;;16.90;91.80;;;;;;4980581;28;20458;-85
2022/06/20 08:38:45;;;;;;;11.00;5.30;;;16.90;92.00;;;;;;4980178;28;20484;-85
2022/06/20 08:41:38;;;;;;;8.30;4.40;;;17.10;89.90;;;;;;4980722;28;20988;-84
2022/06/20 08:44:35;;;;;;;9.27;5.57;;;17.40;85.20;;;;;;4980178;28;20456;-84
2022/06/20 08:47:38;;;;;;;10.47;7.67;;;17.40;87.00;;;;;;4949737;28;20468;-85
2022/06/20 08:50:32;;;;;;;15.10;8.20;;;17.30;81.80;;;;;;4988226;28;20459;-85
2022/06/20 08:53:40;;;;;;;16.17;8.30;;;17.40;80.90;;;;;;4979674;28;20443;-83
2022/06/20 08:56:18;;;;;;;24.40;8.17;;;17.60;77.80;;;;;;4979773;28;20539;-84
2022/06/20 08:58:56;;;;;;;20.70;7.73;;;17.30;78.50;;;;;;4976932;28;20472;-85
2022/06/20 09:01:33;;;;;;;15.37;7.90;;;17.20;79.20;;;;;;4979569;28;20458;-85
2022/06/20 09:04:16;;;;;;;16.23;8.00;;;17.30;79.80;;;;;;4980017;28;20951;-85
2022/06/20 09:07:26;;;;;;;16.30;9.60;;;17.30;79.80;;;;;;4979856;28;20447;-85
2022/06/20 09:10:18;;;;;;;14.03;8.37;;;17.80;79.20;;;;;;4980046;28;20461;-85
2022/06/20 09:13:14;;;;;;;16.63;9.80;;;18.50;76.80;;;;;;4981101;28;20451;-85
2022/06/20 09:15:50;;;;;;;14.27;7.80;;;19.20;71.30;;;;;;4980379;28;20858;-85
2022/06/20 09:18:30;;;;;;;10.23;4.43;;;19.90;63.80;;;;;;4979780;28;20479;-85
2022/06/20 09:21:05;;;;;;;10.50;4.03;;;19.60;57.20;;;;;;4982808;28;20463;-85
2022/06/20 09:23:44;;;;;;;5.20;3.07;;;20.00;53.20;;;;;;4983234;28;20452;-85
2022/06/20 09:26:21;;;;;;;6.73;3.73;;;20.70;50.90;;;;;;4983235;28;20462;-85
2022/06/20 09:29:09;;;;;;;6.73;3.53;;;21.10;53.40;;;;;;4984528;28;20488;-86
2022/06/20 09:31:59;;;;;;;7.60;3.00;;;21.20;45.50;;;;;;4971059;28;20870;-86
2022/06/20 09:34:52;;;;;;;8.00;2.97;;;21.20;48.00;;;;;;4980547;28;20486;-86
2022/06/20 09:37:38;;;;;;;10.83;3.10;;;20.70;46.50;;;;;;4980198;28;20869;-86
2022/06/20 09:40:16;;;;;;;8.50;2.53;;;20.30;52.60;;;;;;4979496;28;20478;-85
2022/06/20 09:42:50;;;;;;;7.50;1.93;;;19.50;50.80;;;;;;4980511;28;20462;-86
2022/06/20 09:45:31;;;;;;;11.53;2.33;;;18.80;52.60;;;;;;4980038;28;20457;-86
2022/06/20 09:48:06;;;;;;;7.60;2.20;;;18.50;58.10;;;;;;4979883;28;20489;-85
2022/06/20 09:50:47;;;;;;;6.13;2.27;;;18.40;51.70;;;;;;4979218;28;20460;-85
2022/06/20 09:53:28;;;;;;;5.67;1.93;;;18.40;55.10;;;;;;4980087;28;20456;-85
2022/06/20 09:56:02;;;;;;;6.33;1.73;;;18.50;51.80;;;;;;4979609;28;20479;-85
2022/06/20 09:58:38;;;;;;;7.93;2.17;;;18.80;49.20;;;;;;4976583;28;20487;-85
2022/06/20 10:01:13;;;;;;;5.27;1.60;;;18.90;51.30;;;;;;4979726;28;20463;-85
2022/06/20 10:03:47;;;;;;;7.93;2.37;;;20.00;45.50;;;;;;4979262;28;20455;-86
2022/06/20 10:06:28;;;;;;;10.70;3.07;;;20.80;41.70;;;;;;4979737;28;20450;-86
2022/06/20 10:09:03;;;;;;;6.70;2.50;;;20.30;40.10;;;;;;4978165;28;20498;-85
2022/06/20 10:11:35;;;;;;;7.30;2.07;;;20.00;38.50;;;;;;4979581;28;20468;-85
2022/06/20 10:14:11;;;;;;;8.07;1.70;;;20.20;37.10;;;;;;4979726;28;20830;-86
2022/06/20 10:16:44;;;;;;;4.93;1.40;;;19.90;35.20;;;;;;4979283;28;20455;-86
2022/06/20 10:19:18;;;;;;;5.87;1.43;;;19.80;41.20;;;;;;4978125;28;20477;-86
2022/06/20 10:21:52;;;;;;;6.17;1.77;;;20.00;43.40;;;;;;4980281;28;20461;-86
2022/06/20 10:24:48;;;;;;;5.27;1.63;;;19.80;36.00;;;;;;4979625;28;20466;-85
2022/06/20 10:27:41;;;;;;;8.07;1.70;;;19.70;35.00;;;;;;4981499;28;20485;-86
2022/06/20 10:30:11;;;;;;;8.60;1.77;;;19.70;35.70;;;;;;4982774;28;21002;-85
2022/06/20 10:32:55;;;;;;;7.83;1.70;;;20.10;35.40;;;;;;4982595;28;20463;-84
2022/06/20 10:35:36;;;;;;;10.10;2.07;;;20.20;34.30;;;;;;4984411;28;20839;-85
2022/06/20 10:38:08;;;;;;;4.30;1.50;;;19.80;37.20;;;;;;4981960;28;20477;-84
2022/06/20 10:40:46;;;;;;;5.30;1.17;;;19.60;29.20;;;;;;4982102;28;20546;-84
2022/06/20 10:43:25;;;;;;;7.70;1.87;;;19.60;28.90;;;;;;4980708;28;20464;-84
2022/06/20 10:45:57;;;;;;;7.77;1.60;;;20.00;35.30;;;;;;4981055;28;20464;-84
2022/06/20 10:48:44;;;;;;;5.87;1.90;;;20.70;31.40;;;;;;4981535;28;20483;-84
2022/06/20 10:51:17;;;;;;;9.37;1.77;;;20.80;29.10;;;;;;4981818;28;20456;-84
2022/06/20 10:53:58;;;;;;;5.60;1.67;;;19.90;30.20;;;;;;4981072;28;20459;-84
2022/06/20 10:56:32;;;;;;;5.50;1.60;;;19.40;32.70;;;;;;4981564;28;20513;-83
2022/06/20 10:59:20;;;;;;;6.20;1.60;;;19.40;34.60;;;;;;4979218;28;20473;-84
2022/06/20 11:01:52;;;;;;;5.13;1.53;;;19.70;31.20;;;;;;4981158;28;20454;-84
2022/06/20 11:04:55;;;;;;;5.33;1.40;;;20.10;27.90;;;;;;4981875;28;20454;-84
2022/06/20 11:07:32;;;;;;;7.83;1.90;;;21.00;26.90;;;;;;4981549;28;20484;-84
2022/06/20 11:10:08;;;;;;;6.40;1.93;;;22.20;25.20;;;;;;4981347;28;20460;-85
2022/06/20 11:12:47;;;;;;;7.30;1.80;;;22.60;22.00;;;;;;4982068;28;20456;-85
2022/06/20 11:15:29;;;;;;;5.00;1.43;;;23.80;18.50;;;;;;4981958;28;20485;-85
2022/06/20 11:18:05;;;;;;;5.30;1.70;;;25.00;13.00;;;;;;4981581;28;20486;-85
2022/06/20 11:20:38;;;;;;;5.83;1.87;;;25.40;10.30;;;;;;4982362;28;20450;-85
2022/06/20 11:23:14;;;;;;;10.20;2.10;;;25.30;11.10;;;;;;4980728;28;20459;-85
2022/06/20 11:25:51;;;;;;;6.10;1.60;;;25.00;8.10;;;;;;4982264;28;20446;-85
2022/06/20 11:28:50;;;;;;;5.80;1.60;;;25.50;6.60;;;;;;4980137;28;20474;-85
2022/06/20 11:31:25;;;;;;;9.07;1.80;;;24.90;9.30;;;;;;4978144;28;20840;-85
2022/06/20 11:34:06;;;;;;;5.87;1.97;;;24.10;9.10;;;;;;4981037;28;20462;-85
2022/06/20 11:36:59;;;;;;;5.27;1.60;;;23.60;13.50;;;;;;4981469;28;20478;-85
2022/06/20 11:39:38;;;;;;;5.37;1.60;;;24.30;15.30;;;;;;4980351;28;20925;-85
2022/06/20 11:42:35;;;;;;;5.60;1.63;;;24.80;12.50;;;;;;4981143;28;20462;-84
2022/06/20 11:45:17;;;;;;;4.57;1.53;;;24.70;8.80;;;;;;4981316;28;20454;-85
2022/06/20 11:48:13;;;;;;;6.43;1.97;;;24.00;7.30;;;;;;4981417;28;20871;-85
2022/06/20 11:50:46;;;;;;;7.30;1.80;;;23.30;10.20;;;;;;4981318;28;20471;-84
2022/06/20 11:53:22;;;;;;;5.53;1.60;;;23.00;11.50;;;;;;4981262;28;20465;-84
2022/06/20 11:55:52;;;;;;;4.80;1.77;;;23.90;10.70;;;;;;4980666;28;20478;-85
2022/06/20 11:58:28;;;;;;;7.80;1.87;;;24.60;9.40;;;;;;4980127;28;20902;-84
2022/06/20 12:01:00;;;;;;;5.87;2.00;;;25.40;8.40;;;;;;4982376;28;20462;-85
2022/06/20 12:03:35;;;;;;;8.03;1.53;;;26.40;1.00;;;;;;4991071;28;20455;-85
2022/06/20 12:06:07;;;;;;;5.57;1.60;;;26.90;1.30;;;;;;4991623;28;20446;-85
2022/06/20 12:08:43;;;;;;;6.80;1.70;;;26.00;1.00;;;;;;4990499;28;20494;-85
2022/06/20 12:11:18;;;;;;;13.10;1.83;;;25.30;1.00;;;;;;4992836;28;20469;-84
2022/06/20 12:13:55;;;;;;;7.20;1.70;;;25.80;1.00;;;;;;4981706;28;20462;-85
2022/06/20 12:16:40;;;;;;;6.50;1.20;;;25.20;1.00;;;;;;4981293;28;20482;-84
2022/06/20 12:25:19;;;;;;;5.67;1.70;;;24.50;6.10;;;;;;4980736;28;20478;-85
2022/06/20 12:27:46;;;;;;;6.27;1.70;;;25.00;5.60;;;;;;4980721;28;20482;-84
2022/06/20 12:30:16;;;;;;;6.97;2.07;;;24.30;1.00;;;;;;4979912;28;20802;-84
2022/06/20 12:32:47;;;;;;;7.93;1.80;;;24.50;6.70;;;;;;4980452;28;20482;-84
2022/06/20 12:35:21;;;;;;;7.07;1.90;;;24.90;4.10;;;;;;4981009;28;20509;-85
2022/06/20 12:37:56;;;;;;;7.93;2.20;;;25.60;1.00;;;;;;4980611;28;20481;-84
2022/06/20 12:40:28;;;;;;;6.87;1.77;;;25.80;1.00;;;;;;4980118;28;20458;-85
2022/06/20 12:43:01;;;;;;;5.03;1.63;;;25.30;1.00;;;;;;4980491;28;20828;-84
2022/06/20 12:45:57;;;;;;;7.10;1.73;;;26.30;1.00;;;;;;4980859;28;20451;-84
2022/06/20 12:48:37;;;;;;;6.67;2.30;;;26.10;1.00;;;;;;4978991;28;20485;-85
2022/06/20 12:51:12;;;;;;;6.57;2.33;;;26.90;1.00;;;;;;4980002;28;20462;-85
2022/06/20 12:54:03;;;;;;;9.10;2.33;;;27.50;1.00;;;;;;4981377;28;20459;-85
2022/06/20 12:56:44;;;;;;;5.00;1.60;;;27.10;1.00;;;;;;4981233;28;20478;-84
2022/06/20 12:59:45;;;;;;;5.60;1.90;;;26.70;1.00;;;;;;4979745;28;20454;-85
2022/06/20 13:02:19;;;;;;;8.57;2.70;;;26.30;1.00;;;;;;4980406;28;20473;-84
2022/06/20 13:05:16;;;;;;;7.30;2.17;;;25.90;1.00;;;;;;4980274;28;20810;-85
2022/06/20 13:08:02;;;;;;;5.90;2.27;;;25.30;1.00;;;;;;4975927;28;21030;-84
2022/06/20 13:10:41;;;;;;;7.03;2.00;;;25.90;1.00;;;;;;4979932;28;20437;-84
2022/06/20 13:13:26;;;;;;;4.77;1.70;;;27.00;1.00;;;;;;4980306;28;20458;-85
2022/06/20 13:16:01;;;;;;;5.67;2.00;;;26.50;1.00;;;;;;4979796;28;20506;-85
2022/06/20 13:18:56;;;;;;;7.50;2.23;;;25.20;1.00;;;;;;4979397;28;21001;-84
2022/06/20 13:21:36;;;;;;;5.63;1.97;;;25.50;1.00;;;;;;4979660;28;20490;-84
2022/06/20 13:24:35;;;;;;;7.03;2.50;;;24.90;1.00;;;;;;4980031;28;20812;-84
2022/06/20 13:27:14;;;;;;;5.00;1.80;;;24.50;1.90;;;;;;4964613;28;20458;-84
2022/06/20 13:29:49;;;;;;;5.33;1.90;;;24.50;1.00;;;;;;4978721;28;20838;-84
2022/06/20 13:32:25;;;;;;;6.40;2.73;;;24.60;1.00;;;;;;4979267;28;20461;-85
2022/06/20 13:35:02;;;;;;;8.00;2.33;;;25.20;1.00;;;;;;4979697;28;20458;-85
2022/06/20 13:38:15;;;;;;;5.57;1.97;;;26.20;1.00;;;;;;4980686;28;20467;-84
2022/06/20 13:40:52;;;;;;;6.27;2.20;;;26.70;1.00;;;;;;4933471;28;20441;-84
2022/06/20 13:43:34;;;;;;;5.10;2.37;;;26.00;1.00;;;;;;4980142;28;20443;-84
2022/06/20 13:46:07;;;;;;;7.07;2.80;;;26.10;1.00;;;;;;4979624;28;20547;-83
2022/06/20 13:48:39;;;;;;;9.20;2.30;;;25.30;1.00;;;;;;4978360;28;20922;-82